Time;durP1;ratioP1;P1;durP2;ratioP2;P2;SDS_P1;SDS_P2;PMS_P1;PMS_P2;Temp;Humidity;BMP_temperature;BMP_pressure;BME280_temperature;BME280_humidity;BME280_pressure;Samples;Min_cycle;Max_cycle;Signal;HPM_P1;HPM_P2
2022/09/22 00:00:08;;;;;;;3.87;3.13;;;;;;;5.67;100.00;97450.41;10327913;28;20234;-73
2022/09/22 00:05:08;;;;;;;4.60;2.90;;;;;;;5.72;100.00;97459.50;10311300;28;20224;-73
2022/09/22 00:10:08;;;;;;;2.87;2.20;;;;;;;5.79;100.00;97456.47;10328253;28;20202;-71
2022/09/22 00:15:10;;;;;;;3.33;2.90;;;;;;;5.78;100.00;97462.66;10336409;28;20186;-73
2022/09/22 00:20:12;;;;;;;3.43;2.50;;;;;;;5.78;100.00;97450.47;10327862;28;20190;-72
2022/09/22 00:25:12;;;;;;;2.73;2.47;;;;;;;5.75;100.00;97426.47;10328040;28;20226;-72
2022/09/22 00:30:13;;;;;;;4.23;2.47;;;;;;;5.69;100.00;97428.53;10327140;28;20201;-73
2022/09/22 00:35:14;;;;;;;5.33;2.43;;;;;;;5.65;100.00;97428.88;10327600;28;20216;-72
2022/09/22 00:40:14;;;;;;;3.93;2.73;;;;;;;5.70;100.00;97424.19;10327624;28;20227;-72
2022/09/22 00:45:15;;;;;;;3.67;2.83;;;;;;;5.76;100.00;97428.09;10326564;28;20229;-72
2022/09/22 00:50:21;;;;;;;4.37;2.67;;;;;;;5.67;100.00;97425.22;10327264;28;20194;-72
2022/09/22 00:55:24;;;;;;;3.77;2.40;;;;;;;5.61;100.00;97419.63;10327001;28;20216;-72
2022/09/22 01:00:25;;;;;;;2.83;2.50;;;;;;;5.52;100.00;97416.72;10325568;28;20765;-73
2022/09/22 01:05:26;;;;;;;3.13;2.60;;;;;;;5.43;100.00;97422.56;10325255;28;20272;-73
2022/09/22 01:10:26;;;;;;;3.70;2.57;;;;;;;5.43;100.00;97413.94;10309232;28;20198;-72
2022/09/22 01:15:34;;;;;;;2.37;2.17;;;;;;;5.35;100.00;97417.91;10326592;28;20189;-72
2022/09/22 01:20:55;;;;;;;6.23;2.57;;;;;;;5.20;100.00;97408.56;10326288;28;20189;-72
2022/09/22 01:26:09;;;;;;;4.70;3.10;;;;;;;5.20;100.00;97410.34;10322725;28;20221;-72
2022/09/22 01:31:16;;;;;;;4.67;2.90;;;;;;;5.15;100.00;97405.47;10366263;28;20198;-72
2022/09/22 01:36:26;;;;;;;7.80;3.40;;;;;;;5.23;100.00;97405.78;10333386;28;20677;-73
2022/09/22 01:41:43;;;;;;;3.40;3.07;;;;;;;5.14;100.00;97406.41;10349235;28;20218;-73
2022/09/22 01:47:07;;;;;;;4.23;2.80;;;;;;;5.08;100.00;97412.03;10348899;28;20220;-73
2022/09/22 01:52:12;;;;;;;4.27;3.10;;;;;;;4.99;100.00;97416.91;10359863;28;20669;-73
2022/09/22 01:57:19;;;;;;;4.70;3.00;;;;;;;4.95;100.00;97405.06;10365352;28;20185;-73
2022/09/22 02:02:30;;;;;;;4.23;3.13;;;;;;;4.97;100.00;97413.56;10348185;28;20241;-72
2022/09/22 02:07:36;;;;;;;3.20;2.70;;;;;;;4.89;100.00;97410.66;10351099;28;20217;-72
2022/09/22 02:12:37;;;;;;;6.50;2.83;;;;;;;4.77;100.00;97408.91;10355871;28;20189;-72
2022/09/22 02:17:37;;;;;;;6.00;3.23;;;;;;;4.81;100.00;97411.19;10355760;28;20185;-73
2022/09/22 02:22:38;;;;;;;4.10;3.23;;;;;;;4.77;100.00;97409.72;10355268;28;20186;-73
2022/09/22 02:27:39;;;;;;;5.00;4.20;;;;;;;4.80;100.00;97419.09;10373051;28;20221;-73
2022/09/22 02:32:42;;;;;;;8.70;5.67;;;;;;;4.74;100.00;97416.91;10371637;28;20189;-72
2022/09/22 02:37:50;;;;;;;11.30;6.80;;;;;;;4.75;100.00;97416.78;10372312;28;20209;-72
2022/09/22 02:43:11;;;;;;;14.97;7.60;;;;;;;4.82;100.00;97425.00;10372381;28;20201;-73
2022/09/22 02:48:20;;;;;;;15.73;6.37;;;;;;;4.79;100.00;97417.41;10372080;28;20303;-72
2022/09/22 02:53:20;;;;;;;10.67;6.00;;;;;;;4.75;100.00;97413.38;10354131;28;20669;-72
2022/09/22 02:58:21;;;;;;;12.90;6.87;;;;;;;4.69;100.00;97404.22;10371176;28;20181;-72
2022/09/22 03:03:21;;;;;;;32.53;14.87;;;;;;;4.63;100.00;97400.28;10368483;28;20638;-72
2022/09/22 03:08:21;;;;;;;6.47;3.93;;;;;;;4.57;100.00;97385.09;10365554;28;20803;-73
2022/09/22 03:13:22;;;;;;;5.07;4.07;;;;;;;4.48;100.00;97390.91;10363070;28;20189;-73
2022/09/22 03:18:22;;;;;;;7.10;4.43;;;;;;;4.49;100.00;97395.19;10346514;28;20181;-73
2022/09/22 03:23:22;;;;;;;5.73;4.27;;;;;;;4.57;100.00;97398.09;10363142;28;20195;-72
2022/09/22 03:28:23;;;;;;;8.43;5.03;;;;;;;4.61;100.00;97390.94;10362269;28;20225;-73
2022/09/22 03:33:23;;;;;;;8.07;4.03;;;;;;;4.67;100.00;97392.28;10362748;28;20193;-73
2022/09/22 03:38:24;;;;;;;4.63;3.33;;;;;;;4.75;100.00;97393.44;10361878;28;20700;-73
2022/09/22 03:43:24;;;;;;;6.30;4.10;;;;;;;4.63;100.00;97391.66;10359927;28;20292;-73
2022/09/22 03:48:25;;;;;;;3.93;3.50;;;;;;;4.59;100.00;97385.00;10362532;28;20260;-73
2022/09/22 03:53:26;;;;;;;6.47;3.67;;;;;;;4.59;100.00;97385.00;10362003;28;20235;-73
2022/09/22 03:58:27;;;;;;;6.23;4.10;;;;;;;4.57;100.00;97381.69;10362428;28;21079;-73
2022/09/22 04:03:27;;;;;;;5.37;4.00;;;;;;;4.56;100.00;97380.84;10366166;28;20268;-73
2022/09/22 04:08:28;;;;;;;4.63;3.70;;;;;;;4.45;100.00;97384.16;10351649;28;20228;-73
2022/09/22 04:13:28;;;;;;;9.37;3.87;;;;;;;4.36;100.00;97381.34;10368618;28;20280;-73
2022/09/22 04:18:29;;;;;;;5.07;3.97;;;;;;;4.24;100.00;97378.63;10368725;28;20668;-73
2022/09/22 04:23:29;;;;;;;7.73;5.30;;;;;;;4.18;100.00;97375.59;10368344;28;20618;-73
2022/09/22 04:28:30;;;;;;;6.23;4.60;;;;;;;4.26;100.00;97383.72;10367874;28;20221;-73
2022/09/22 04:33:30;;;;;;;4.90;4.27;;;;;;;4.28;100.00;97379.25;10367103;28;20268;-73
2022/09/22 04:38:31;;;;;;;6.60;4.67;;;;;;;4.29;100.00;97380.94;10368475;28;20304;-72
2022/09/22 04:43:31;;;;;;;7.10;5.27;;;;;;;4.21;100.00;97373.66;10367595;28;20193;-72
2022/09/22 04:48:31;;;;;;;10.17;4.87;;;;;;;4.15;100.00;97373.22;10367922;28;20221;-72
2022/09/22 04:53:32;;;;;;;6.70;5.33;;;;;;;4.15;100.00;97381.84;10367495;28;20331;-73
2022/09/22 04:58:32;;;;;;;6.33;5.13;;;;;;;4.07;100.00;97386.66;10367218;28;20217;-72
2022/09/22 05:03:36;;;;;;;8.10;5.43;;;;;;;4.09;100.00;97390.00;10367553;28;20328;-73
2022/09/22 05:08:37;;;;;;;9.60;4.87;;;;;;;4.03;100.00;97393.00;10367501;28;20225;-73
2022/09/22 05:13:39;;;;;;;10.60;5.73;;;;;;;3.91;100.00;97390.25;10366953;28;20201;-72
2022/09/22 05:18:40;;;;;;;6.90;5.20;;;;;;;3.97;100.00;97388.22;10367578;28;20340;-73
2022/09/22 05:23:40;;;;;;;12.37;5.43;;;;;;;4.00;100.00;97396.63;10366785;28;20566;-72
2022/09/22 05:28:40;;;;;;;8.03;5.60;;;;;;;4.06;100.00;97408.38;10367118;28;20767;-72
2022/09/22 05:33:41;;;;;;;8.10;6.03;;;;;;;4.08;100.00;97403.91;10366119;28;20658;-72
2022/09/22 05:38:41;;;;;;;7.20;5.30;;;;;;;4.06;100.00;97398.00;10366878;28;20549;-73
2022/09/22 05:43:42;;;;;;;9.13;4.97;;;;;;;4.01;100.00;97392.25;10370471;28;20631;-72
2022/09/22 05:48:42;;;;;;;9.57;5.03;;;;;;;4.04;100.00;97407.59;10374324;28;20231;-72
2022/09/22 05:53:42;;;;;;;10.33;5.17;;;;;;;4.11;100.00;97404.53;10374099;28;20269;-72
2022/09/22 05:58:43;;;;;;;11.50;5.97;;;;;;;4.27;100.00;97396.59;10373813;28;20237;-72
2022/09/22 06:03:43;;;;;;;10.33;6.53;;;;;;;4.55;100.00;97399.09;10373686;28;20335;-73
2022/09/22 06:08:43;;;;;;;9.70;8.67;;;;;;;4.86;100.00;97397.09;10373791;28;20323;-72
2022/09/22 06:13:44;;;;;;;6.90;5.47;;;;;;;5.34;100.00;97387.69;10372911;28;20193;-73
2022/09/22 06:18:46;;;;;;;6.50;5.67;;;;;;;5.36;100.00;97379.78;10373574;28;20182;-73
2022/09/22 06:23:46;;;;;;;7.03;6.30;;;;;;;5.40;100.00;97373.41;10372871;28;20650;-72
2022/09/22 06:28:47;;;;;;;8.20;5.33;;;;;;;5.44;100.00;97366.25;10372802;28;20300;-72
2022/09/22 06:33:47;;;;;;;9.63;4.83;;;;;;;5.75;100.00;97374.47;10372515;28;20189;-72
2022/09/22 06:38:47;;;;;;;6.43;4.77;;;;;;;5.99;100.00;97375.31;10372630;28;20255;-72
2022/09/22 06:43:49;;;;;;;8.27;4.23;;;;;;;6.09;100.00;97372.88;10371453;28;20681;-72
2022/09/22 06:48:50;;;;;;;6.17;4.40;;;;;;;6.31;100.00;97366.94;10372463;28;20229;-73
2022/09/22 06:53:50;;;;;;;8.03;4.17;;;;;;;7.11;100.00;97360.06;10371380;28;20193;-72
2022/09/22 06:58:57;;;;;;;6.07;3.97;;;;;;;7.28;100.00;97350.94;10371833;28;20226;-72
2022/09/22 07:03:57;;;;;;;6.30;3.43;;;;;;;8.00;100.00;97344.38;10357785;28;20452;-73
2022/09/22 07:08:58;;;;;;;8.57;3.50;;;;;;;8.81;100.00;97342.06;10374744;28;20252;-73
2022/09/22 07:13:58;;;;;;;9.37;3.67;;;;;;;9.25;100.00;97332.19;10370894;28;20219;-73
2022/09/22 07:18:58;;;;;;;5.10;3.43;;;;;;;9.57;100.00;97330.34;10370882;28;20185;-72
2022/09/22 07:23:59;;;;;;;4.40;3.43;;;;;;;10.40;100.00;97322.97;10370682;28;20293;-72
2022/09/22 07:29:02;;;;;;;4.82;2.70;;;;;;;11.17;100.00;97305.34;10366244;28;20221;-73
2022/09/22 07:34:02;;;;;;;4.68;3.33;;;;;;;11.57;100.00;97270.03;10370066;28;20276;-72
2022/09/22 07:39:06;;;;;;;5.03;3.08;;;;;;;12.27;100.00;97258.84;10370195;28;20206;-72
2022/09/22 07:49:26;;;;;;;2.03;1.80;;;;;;;14.25;79.22;97165.41;10369652;28;20665;-73
2022/09/22 07:54:27;;;;;;;5.65;2.47;;;;;;;15.15;77.23;97184.56;10369682;28;20205;-72
2022/09/22 07:59:27;;;;;;;4.20;2.20;;;;;;;15.37;75.87;97182.91;10369307;28;20237;-73
2022/09/22 08:04:30;;;;;;;2.38;2.15;;;;;;;14.11;82.20;97263.59;10367655;28;20198;-72
2022/09/22 08:09:32;;;;;;;4.45;1.70;;;;;;;16.21;72.66;97175.00;10367873;28;20642;-72
2022/09/22 08:14:32;;;;;;;3.42;1.90;;;;;;;15.16;71.68;97154.53;10368393;28;20251;-72
2022/09/22 08:19:33;;;;;;;3.38;2.00;;;;;;;16.03;71.65;97185.09;10369623;28;20204;-73
2022/09/22 08:24:33;;;;;;;2.83;1.95;;;;;;;17.35;66.20;97131.44;10368012;28;20185;-72
2022/09/22 08:29:34;;;;;;;4.50;2.00;;;;;;;18.54;61.82;97104.16;10368680;28;20194;-72
2022/09/22 08:34:34;;;;;;;4.18;1.75;;;;;;;18.32;60.72;97094.66;10368068;28;20227;-72
2022/09/22 08:39:35;;;;;;;3.55;1.92;;;;;;;17.68;61.77;97114.19;10368727;28;20205;-73
2022/09/22 08:44:40;;;;;;;5.50;1.70;;;;;;;16.98;63.56;97135.91;10367309;28;20662;-73
2022/09/22 08:55:14;;;;;;;2.45;1.67;;;;;;;17.40;64.52;97155.53;10353310;28;20189;-73
2022/09/22 09:00:18;;;;;;;2.08;1.23;;;;;;;19.22;61.19;97148.53;10348762;28;20283;-73
2022/09/22 09:05:54;;;;;;;2.10;1.60;;;;;;;18.07;59.55;97079.25;10348024;28;20231;-72
2022/09/22 09:11:00;;;;;;;2.88;1.80;;;;;;;18.04;60.68;97110.59;10350467;28;20284;-73
2022/09/22 09:16:19;;;;;;;6.70;1.50;;;;;;;17.89;61.68;97131.94;10351522;28;20224;-74
2022/09/22 09:21:21;;;;;;;3.45;1.35;;;;;;;18.79;58.27;97090.38;10375529;28;20558;-74
2022/09/22 09:26:22;;;;;;;2.92;1.30;;;;;;;18.30;58.63;97088.72;10374786;28;20221;-73
2022/09/22 09:31:29;;;;;;;1.42;1.33;;;;;;;15.86;66.19;97174.69;10357414;28;20655;-73
2022/09/22 09:36:32;;;;;;;2.05;1.48;;;;;;;17.16;63.79;97166.47;10374616;28;20536;-74
2022/09/22 09:41:34;;;;;;;2.25;1.52;;;;;;;19.07;58.32;97108.03;10355108;28;20192;-72
2022/09/22 09:46:54;;;;;;;2.17;1.50;;;;;;;18.00;62.19;97158.72;10374524;28;20247;-73
2022/09/22 09:51:58;;;;;;;3.72;1.88;;;;;;;17.08;64.76;97189.41;10374545;28;20197;-72
2022/09/22 09:57:13;;;;;;;2.22;1.88;;;;;;;16.43;65.74;97184.84;10356516;28;20197;-72
2022/09/22 10:02:20;;;;;;;2.13;1.75;;;;;;;15.99;67.76;97210.25;10340094;28;20316;-72
2022/09/22 10:07:27;;;;;;;3.60;1.98;;;;;;;14.22;70.90;97213.19;10356167;28;20592;-73
2022/09/22 10:12:29;;;;;;;1.55;1.45;;;;;;;15.40;68.35;97179.13;10356054;28;20547;-73
2022/09/22 10:17:40;;;;;;;1.77;1.52;;;;;;;15.64;66.59;97155.16;10356298;28;20190;-73
2022/09/22 10:22:41;;;;;;;3.28;1.30;;;;;;;17.41;59.64;97077.72;10372664;28;20243;-73
2022/09/22 10:27:42;;;;;;;3.85;1.83;;;;;;;17.40;61.96;97125.56;10355266;28;20235;-73
2022/09/22 10:33:03;;;;;;;3.90;1.73;;;;;;;16.85;63.81;97149.81;10372646;28;20190;-73
2022/09/22 10:38:19;;;;;;;4.25;1.95;;;;;;;14.35;70.21;97196.03;10372821;28;20205;-72
2022/09/22 10:43:30;;;;;;;2.95;1.50;;;;;;;14.39;74.62;97265.88;10354647;28;20189;-72
2022/09/22 10:48:43;;;;;;;3.72;1.50;;;;;;;14.14;73.03;97230.84;10372857;28;20466;-73
2022/09/22 10:54:08;;;;;;;1.70;1.42;;;;;;;14.94;69.46;97188.59;10370896;28;20204;-73
2022/09/22 10:59:26;;;;;;;2.88;1.00;;;;;;;15.81;62.76;97083.75;10354781;28;20232;-72
2022/09/22 11:04:40;;;;;;;1.65;1.20;;;;;;;15.34;64.79;97123.41;10371071;28;20276;-73
2022/09/22 11:15:25;;;;;;;0.98;0.88;;;;;;;15.21;63.21;97091.47;10356044;28;20575;-73
2022/09/22 11:20:33;;;;;;;1.38;0.90;;;;;;;16.58;57.92;97038.41;10370726;28;20201;-73
2022/09/22 11:25:44;;;;;;;3.55;1.30;;;;;;;17.64;51.70;96938.88;10370505;28;20217;-73
2022/09/22 11:30:44;;;;;;;2.08;1.20;;;;;;;18.50;51.50;96967.59;10353108;28;20192;-73
2022/09/22 11:35:55;;;;;;;5.20;1.30;;;;;;;17.95;52.56;96964.16;10352625;28;20219;-73
2022/09/22 11:41:30;;;;;;;1.88;1.45;;;;;;;19.61;51.71;96991.97;10370096;28;20331;-72
2022/09/22 11:47:00;;;;;;;3.45;1.00;;;;;;;20.67;51.20;97017.47;10352509;28;20221;-72
2022/09/22 11:52:18;;;;;;;2.22;1.10;;;;;;;20.32;49.22;96971.72;10369434;28;20566;-72
2022/09/22 11:57:22;;;;;;;1.45;1.35;;;;;;;18.92;51.85;96978.13;10369364;28;20191;-72
2022/09/22 12:02:30;;;;;;;1.67;1.08;;;;;;;19.72;52.31;97003.81;10351519;28;20238;-72
2022/09/22 12:07:36;;;;;;;4.05;1.20;;;;;;;19.01;53.60;97013.25;10351961;28;20700;-72
2022/09/22 12:12:36;;;;;;;3.33;1.10;;;;;;;17.32;54.30;96980.88;10369073;28;20271;-73
2022/09/22 12:17:47;;;;;;;1.10;0.98;;;;;;;17.27;53.04;96954.97;10368890;28;20185;-72
2022/09/22 12:23:17;;;;;;;3.38;1.00;;;;;;;16.54;53.29;96952.50;10351355;28;20195;-73
2022/09/22 12:28:24;;;;;;;1.80;0.90;;;;;;;16.04;55.47;96985.88;10350897;28;20248;-73
2022/09/22 12:33:26;;;;;;;0.95;0.95;;;;;;;16.48;50.72;96875.75;10350743;28;20190;-73
2022/09/22 12:38:29;;;;;;;2.03;0.68;;;;;;;16.06;52.55;96909.88;10350787;28;20693;-72
2022/09/22 12:43:30;;;;;;;1.67;1.10;;;;;;;14.80;55.81;96949.31;10367935;28;20205;-73
2022/09/22 12:48:33;;;;;;;0.68;0.68;;;;;;;17.45;49.36;96880.31;10367982;28;20228;-73
2022/09/22 12:53:34;;;;;;;0.82;0.80;;;;;;;19.06;45.53;96849.63;10333349;28;20193;-72
2022/09/22 12:58:34;;;;;;;1.35;0.90;;;;;;;21.03;45.61;96913.97;10350078;28;20259;-73
2022/09/22 13:03:35;;;;;;;3.00;1.10;;;;;;;22.31;43.66;96898.22;10367401;28;20189;-73
2022/09/22 13:08:35;;;;;;;1.33;1.23;;;;;;;21.89;43.63;96880.28;10367719;28;20590;-73
2022/09/22 13:13:46;;;;;;;1.40;0.75;;;;;;;23.07;39.07;96804.97;10366718;28;20322;-72
2022/09/22 13:18:50;;;;;;;3.75;1.10;;;;;;;22.34;41.38;96851.59;10367937;28;20709;-73
2022/09/22 13:23:51;;;;;;;1.15;0.93;;;;;;;20.58;46.13;96906.91;10366561;28;20193;-73
2022/09/22 13:29:03;;;;;;;23.30;1.33;;;;;;;21.72;42.21;96848.06;10366050;28;20701;-74
2022/09/22 13:34:24;;;;;;;1.88;0.80;;;;;;;22.18;38.61;96768.44;10368314;28;20201;-73
2022/09/22 13:39:27;;;;;;;0.93;0.70;;;;;;;23.07;38.49;96793.47;10381275;28;20239;-73
2022/09/22 13:44:30;;;;;;;0.77;0.75;;;;;;;22.06;39.72;96796.94;10350751;28;20231;-73
2022/09/22 13:49:35;;;;;;;0.93;0.82;;;;;;;22.31;40.03;96823.50;10368912;28;20256;-74
2022/09/22 13:54:36;;;;;;;1.05;1.00;;;;;;;22.79;38.00;96763.75;10350741;28;20193;-73
2022/09/22 13:59:40;;;;;;;3.65;1.05;;;;;;;22.33;38.73;96772.53;10350743;28;20646;-74
2022/09/22 14:04:49;;;;;;;1.15;1.00;;;;;;;23.54;38.38;96805.94;10372088;28;20235;-73
2022/09/22 14:09:50;;;;;;;6.50;1.20;;;;;;;23.01;41.26;96848.66;10375406;28;20196;-73
2022/09/22 14:14:50;;;;;;;4.00;2.45;;;;;;;22.43;42.08;96843.03;10375095;28;20560;-74
2022/09/22 14:19:59;;;;;;;2.97;1.23;;;;;;;20.21;47.06;96904.03;10374924;28;20355;-73
2022/09/22 14:25:00;;;;;;;1.42;1.33;;;;;;;19.24;48.51;96909.28;10357448;28;20259;-73
2022/09/22 14:30:02;;;;;;;2.17;1.40;;;;;;;18.11;51.17;96933.81;10373635;28;20590;-73
2022/09/22 14:35:19;;;;;;;2.78;1.10;;;;;;;18.04;53.21;96986.00;10371947;28;20268;-73
2022/09/22 14:40:21;;;;;;;1.30;1.00;;;;;;;19.61;48.20;96912.25;10373970;28;20707;-73
2022/09/22 14:45:23;;;;;;;1.90;1.08;;;;;;;21.98;44.02;96890.66;10344922;28;20217;-74
2022/09/22 14:50:23;;;;;;;3.33;1.15;;;;;;;23.95;38.40;96799.56;10333350;28;20197;-74
2022/09/22 14:55:27;;;;;;;0.90;0.73;;;;;;;24.62;37.24;96798.00;10332908;28;20662;-74
2022/09/22 15:05:49;;;;;;;3.25;0.90;;;;;;;26.39;33.52;96738.13;10332516;28;20221;-74
2022/09/22 15:10:55;;;;;;;1.52;1.08;;;;;;;23.64;36.22;96715.22;10332583;28;20201;-73
2022/09/22 15:15:56;;;;;;;1.42;1.05;;;;;;;26.46;34.20;96766.38;10331792;28;20612;-74
2022/09/22 15:20:58;;;;;;;2.63;1.27;;;;;;;26.51;32.81;96723.44;10332640;28;20289;-73
2022/09/22 15:26:04;;;;;;;2.70;1.10;;;;;;;25.73;33.12;96693.53;10331837;28;20690;-74
2022/09/22 15:31:04;;;;;;;1.17;0.90;;;;;;;27.39;32.75;96756.19;10331494;28;20198;-74
2022/09/22 15:36:12;;;;;;;1.58;1.10;;;;;;;28.45;32.43;96790.88;10314164;28;20686;-74
2022/09/22 15:41:15;;;;;;;0.93;0.80;;;;;;;28.79;30.67;96748.03;10330989;28;20198;-74
2022/09/22 15:46:28;;;;;;;1.20;0.82;;;;;;;24.98;36.05;96774.44;10331150;28;20248;-73
2022/09/22 15:51:30;;;;;;;1.95;1.30;;;;;;;25.35;36.36;96798.00;10330838;28;20670;-74
2022/09/22 15:56:31;;;;;;;2.72;1.58;;;;;;;24.96;36.89;96794.47;10330862;28;20237;-74
2022/09/22 16:01:31;;;;;;;2.15;1.35;;;;;;;21.58;42.74;96833.28;10330158;28;20268;-73
2022/09/22 16:06:33;;;;;;;2.53;1.20;;;;;;;19.54;45.86;96853.81;10330352;28;20233;-73
2022/09/22 16:11:33;;;;;;;1.77;1.00;;;;;;;17.83;48.83;96887.00;10329983;28;20245;-72
2022/09/22 16:16:36;;;;;;;16.85;10.52;;;;;;;15.97;54.33;96954.09;10329938;28;20673;-72
2022/09/22 16:21:39;;;;;;;4.35;2.22;;;;;;;13.93;62.09;97049.59;10330107;28;20230;-72
2022/09/22 16:26:39;;;;;;;4.85;2.83;;;;;;;12.66;66.95;97102.50;10329046;28;20225;-72
2022/09/22 16:31:40;;;;;;;4.22;2.83;;;;;;;12.52;69.84;97106.56;10329091;28;20601;-73
2022/09/22 16:36:40;;;;;;;3.80;1.33;;;;;;;11.75;74.87;97141.44;10329332;28;20698;-72
2022/09/22 16:41:44;;;;;;;4.63;2.00;;;;;;;10.64;80.27;97161.84;10328915;28;20662;-72
2022/09/22 16:46:45;;;;;;;2.67;1.83;;;;;;;10.03;85.89;97147.44;10328991;28;20253;-72
2022/09/22 16:51:53;;;;;;;3.95;1.80;;;;;;;9.03;96.25;97168.56;10328668;28;20729;-72
2022/09/22 16:56:53;;;;;;;2.60;2.10;;;;;;;8.29;100.00;97161.06;10311438;28;20608;-72
2022/09/22 17:01:53;;;;;;;2.27;2.03;;;;;;;7.90;100.00;97169.53;10328071;28;20312;-72
2022/09/22 17:06:54;;;;;;;2.23;2.00;;;;;;;8.15;100.00;97167.44;10328177;28;20220;-73
2022/09/22 17:11:56;;;;;;;3.83;2.33;;;;;;;7.94;100.00;97172.69;10311175;28;20222;-73
2022/09/22 17:17:04;;;;;;;3.37;2.50;;;;;;;7.96;100.00;97173.38;10328065;28;20204;-74
2022/09/22 17:22:04;;;;;;;6.33;3.73;;;;;;;7.82;100.00;97174.53;10328394;28;20586;-73
2022/09/22 17:27:05;;;;;;;5.20;3.20;;;;;;;7.61;100.00;97185.81;10328143;28;20222;-74
2022/09/22 17:32:06;;;;;;;3.63;2.83;;;;;;;7.47;100.00;97181.72;10327794;28;20190;-74
2022/09/22 17:37:08;;;;;;;3.90;3.03;;;;;;;7.27;100.00;97191.16;10313016;28;20217;-74
2022/09/22 17:42:09;;;;;;;5.43;3.00;;;;;;;7.11;100.00;97198.53;10335522;28;20224;-73
2022/09/22 17:58:01;;;;;;;13.40;11.90;;;;;;;6.68;100.00;97199.34;10335501;28;20654;-73
2022/09/22 18:03:01;;;;;;;6.87;4.83;;;;;;;6.49;100.00;97195.53;10334864;28;20345;-73
2022/09/22 18:08:02;;;;;;;7.87;3.57;;;;;;;6.21;100.00;97202.88;10335241;28;20233;-73
2022/09/22 18:13:03;;;;;;;5.13;3.70;;;;;;;6.11;100.00;97216.69;10334992;28;20282;-74
2022/09/22 18:18:03;;;;;;;3.93;3.27;;;;;;;5.98;100.00;97214.19;10335161;28;20256;-74
2022/09/22 18:23:04;;;;;;;4.63;3.27;;;;;;;5.92;100.00;97225.84;10355546;28;20194;-73
2022/09/22 18:28:05;;;;;;;4.37;3.10;;;;;;;5.83;100.00;97221.34;10359948;28;20320;-73
2022/09/22 18:33:05;;;;;;;3.67;2.60;;;;;;;5.84;100.00;97228.19;10363363;28;20197;-73
2022/09/22 18:38:05;;;;;;;4.43;2.73;;;;;;;5.76;100.00;97233.13;10362305;28;20202;-72
2022/09/22 18:43:08;;;;;;;6.13;3.10;;;;;;;5.53;100.00;97220.91;10344606;28;20659;-74
2022/09/22 18:48:09;;;;;;;7.33;3.00;;;;;;;5.41;100.00;97223.56;10333064;28;20222;-74
2022/09/22 18:53:09;;;;;;;3.73;3.00;;;;;;;5.36;100.00;97229.09;10333761;28;20927;-74
2022/09/22 18:58:11;;;;;;;4.57;2.77;;;;;;;5.33;100.00;97232.75;10333516;28;20800;-73
2022/09/22 19:03:11;;;;;;;4.80;3.20;;;;;;;5.25;100.00;97235.03;10333599;28;20243;-73
2022/09/22 19:08:12;;;;;;;4.90;3.57;;;;;;;5.10;100.00;97231.78;10333165;28;20232;-74
2022/09/22 19:13:15;;;;;;;6.83;3.57;;;;;;;4.92;100.00;97236.53;10332634;28;20288;-73
2022/09/22 19:18:18;;;;;;;4.73;3.73;;;;;;;4.92;100.00;97235.69;10332708;28;20617;-73
2022/09/22 19:23:18;;;;;;;8.23;4.57;;;;;;;4.82;100.00;97238.09;10332079;28;20190;-73
2022/09/22 19:28:18;;;;;;;4.40;3.13;;;;;;;4.83;100.00;97237.16;10331618;28;20316;-73
2022/09/22 19:33:19;;;;;;;4.53;3.73;;;;;;;4.70;100.00;97232.03;10331828;28;20196;-73
2022/09/22 19:38:19;;;;;;;5.60;3.40;;;;;;;4.63;100.00;97226.41;10331683;28;20215;-73
2022/09/22 19:43:21;;;;;;;4.53;2.80;;;;;;;4.67;100.00;97228.78;10331097;28;20225;-73
2022/09/22 19:48:21;;;;;;;6.47;3.17;;;;;;;4.60;100.00;97225.81;10331272;28;20254;-73
2022/09/22 19:53:22;;;;;;;3.50;3.03;;;;;;;4.56;100.00;97221.75;10331201;28;20527;-74
2022/09/22 19:58:23;;;;;;;5.73;3.10;;;;;;;4.55;100.00;97222.66;10330698;28;20199;-73
2022/09/22 20:03:25;;;;;;;4.37;2.50;;;;;;;4.42;100.00;97225.28;10329724;28;20185;-73
2022/09/22 20:08:26;;;;;;;3.57;3.03;;;;;;;4.31;100.00;97217.44;10330330;28;20582;-73
2022/09/22 20:18:45;;;;;;;4.23;3.10;;;;;;;4.15;100.00;97218.47;10330057;28;20658;-73
2022/09/22 20:23:45;;;;;;;3.33;2.87;;;;;;;4.06;100.00;97222.50;10330270;28;20218;-74
2022/09/22 20:28:46;;;;;;;4.80;3.17;;;;;;;3.99;100.00;97223.03;10329432;28;20229;-73
2022/09/22 20:33:46;;;;;;;5.37;3.03;;;;;;;3.97;100.00;97217.13;10329647;28;20178;-73
2022/09/22 20:38:47;;;;;;;6.77;3.23;;;;;;;3.90;100.00;97224.47;10329431;28;20300;-73
2022/09/22 20:43:48;;;;;;;7.33;3.13;;;;;;;3.89;100.00;97215.00;10329019;28;20205;-73
2022/09/22 20:48:51;;;;;;;4.17;3.50;;;;;;;3.81;100.00;97225.91;10329439;28;20265;-73
2022/09/22 20:53:52;;;;;;;6.30;3.40;;;;;;;3.75;100.00;97218.53;10328676;28;20562;-73
2022/09/22 20:58:52;;;;;;;3.47;2.97;;;;;;;3.69;100.00;97224.97;10329242;28;20229;-73
2022/09/22 21:03:54;;;;;;;3.47;3.17;;;;;;;3.67;100.00;97221.63;10328308;28;20208;-73
2022/09/22 21:14:14;;;;;;;3.30;3.03;;;;;;;3.66;100.00;97212.22;10334125;28;20538;-73
2022/09/22 21:19:14;;;;;;;8.70;3.10;;;;;;;3.63;100.00;97209.81;10337005;28;20186;-73
2022/09/22 21:24:15;;;;;;;3.23;2.83;;;;;;;3.60;100.00;97204.00;10336809;28;20285;-73
2022/09/22 21:29:16;;;;;;;3.00;2.67;;;;;;;3.54;100.00;97210.44;10336246;28;20304;-73
2022/09/22 21:34:17;;;;;;;5.40;3.10;;;;;;;3.54;100.00;97205.25;10336434;28;20190;-73
2022/09/22 21:39:17;;;;;;;3.53;3.00;;;;;;;3.50;100.00;97207.19;10336303;28;20228;-73
2022/09/22 21:44:17;;;;;;;6.60;2.83;;;;;;;3.50;100.00;97202.00;10336161;28;20190;-73
2022/09/22 21:49:18;;;;;;;4.70;3.17;;;;;;;3.43;100.00;97198.19;10335873;28;20252;-73
2022/09/22 21:54:18;;;;;;;3.17;2.67;;;;;;;3.48;100.00;97201.28;10335687;28;20201;-73
2022/09/22 21:59:20;;;;;;;2.90;2.50;;;;;;;3.42;100.00;97195.69;10335015;28;20241;-73
2022/09/22 22:04:20;;;;;;;3.00;2.70;;;;;;;3.39;100.00;97202.72;10317911;28;20611;-73
2022/09/22 22:09:22;;;;;;;3.67;2.80;;;;;;;3.34;100.00;97196.19;10335239;28;20230;-73
2022/09/22 22:14:24;;;;;;;4.87;2.53;;;;;;;3.31;100.00;97193.81;10334801;28;20197;-73
2022/09/22 22:19:25;;;;;;;4.00;2.90;;;;;;;3.24;100.00;97184.75;10334856;28;20198;-73
2022/09/22 22:29:30;;;;;;;3.33;2.93;;;;;;;3.21;100.00;97175.41;10333863;28;20600;-73
2022/09/22 22:34:30;;;;;;;4.20;2.70;;;;;;;3.17;100.00;97179.13;10334035;28;20204;-73
2022/09/22 22:39:31;;;;;;;4.30;2.43;;;;;;;3.19;100.00;97165.16;10333862;28;20190;-73
2022/09/22 22:44:31;;;;;;;6.07;3.20;;;;;;;3.16;100.00;97170.53;10333509;28;20194;-72
2022/09/22 22:49:32;;;;;;;3.87;1.90;;;;;;;3.18;100.00;97173.84;10333636;28;20229;-73
2022/09/22 22:54:32;;;;;;;2.70;2.43;;;;;;;3.13;100.00;97165.56;10332891;28;20260;-73
2022/09/22 22:59:33;;;;;;;4.87;3.23;;;;;;;3.08;100.00;97159.00;10333366;28;20230;-73
2022/09/22 23:04:33;;;;;;;2.83;2.43;;;;;;;3.08;100.00;97170.22;10332922;28;20205;-73
2022/09/22 23:09:33;;;;;;;4.00;3.13;;;;;;;3.09;100.00;97164.09;10332707;28;20313;-73
2022/09/22 23:14:35;;;;;;;4.50;3.27;;;;;;;3.15;100.00;97163.69;10332703;28;20209;-72
2022/09/22 23:19:36;;;;;;;4.50;3.60;;;;;;;3.24;100.00;97156.28;10332268;28;20681;-73
2022/09/22 23:24:38;;;;;;;3.40;2.57;;;;;;;3.26;100.00;97150.06;10332181;28;20204;-73
2022/09/22 23:29:38;;;;;;;4.77;3.10;;;;;;;3.27;100.00;97143.94;10331997;28;20261;-73
2022/09/22 23:34:40;;;;;;;7.00;3.40;;;;;;;3.27;100.00;97143.94;10331172;28;20209;-72
2022/09/22 23:39:40;;;;;;;5.07;3.03;;;;;;;3.28;100.00;97134.41;10331829;28;20552;-73
2022/09/22 23:44:40;;;;;;;3.50;3.13;;;;;;;3.24;100.00;97135.56;10330911;28;20193;-73
2022/09/22 23:49:41;;;;;;;11.53;2.90;;;;;;;3.13;100.00;97131.09;10331326;28;20230;-73
2022/09/22 23:54:43;;;;;;;3.93;3.10;;;;;;;3.19;100.00;97133.28;10330841;28;20197;-73
2022/09/22 23:59:43;;;;;;;3.93;3.30;;;;;;;3.20;100.00;97120.25;10330539;28;20238;-73
